sensor_id;sensor_type;location;lat;lon;timestamp;temperature;humidity
45803;DHT22;31504;51.716;9.184;2023-06-10T00:00:36;22.90;58.00
45803;DHT22;31504;51.716;9.184;2023-06-10T00:03:37;22.90;58.00
45803;DHT22;31504;51.716;9.184;2023-06-10T00:06:37;22.90;58.00
45803;DHT22;31504;51.716;9.184;2023-06-10T00:09:38;22.90;58.00
45803;DHT22;31504;51.716;9.184;2023-06-10T00:12:38;22.90;58.00
45803;DHT22;31504;51.716;9.184;2023-06-10T00:15:39;22.90;58.00
45803;DHT22;31504;51.716;9.184;2023-06-10T00:18:39;22.90;58.00
45803;DHT22;31504;51.716;9.184;2023-06-10T00:21:39;22.90;58.00
45803;DHT22;31504;51.716;9.184;2023-06-10T00:24:41;22.90;58.00
45803;DHT22;31504;51.716;9.184;2023-06-10T00:27:42;22.90;58.00
45803;DHT22;31504;51.716;9.184;2023-06-10T00:30:42;22.90;58.00
45803;DHT22;31504;51.716;9.184;2023-06-10T00:33:43;22.90;58.00
45803;DHT22;31504;51.716;9.184;2023-06-10T00:36:43;22.90;58.00
45803;DHT22;31504;51.716;9.184;2023-06-10T00:39:44;22.90;58.00
45803;DHT22;31504;51.716;9.184;2023-06-10T00:42:44;22.90;58.00
45803;DHT22;31504;51.716;9.184;2023-06-10T00:45:45;22.90;58.00
45803;DHT22;31504;51.716;9.184;2023-06-10T00:48:45;22.90;58.00
45803;DHT22;31504;51.716;9.184;2023-06-10T00:51:46;22.90;58.00
45803;DHT22;31504;51.716;9.184;2023-06-10T00:54:47;23.00;58.10
45803;DHT22;31504;51.716;9.184;2023-06-10T00:57:47;22.90;58.00
45803;DHT22;31504;51.716;9.184;2023-06-10T01:00:48;22.90;58.00
45803;DHT22;31504;51.716;9.184;2023-06-10T01:03:49;22.90;58.10
45803;DHT22;31504;51.716;9.184;2023-06-10T01:06:54;22.90;58.00
45803;DHT22;31504;51.716;9.184;2023-06-10T01:13:30;22.90;58.00
45803;DHT22;31504;51.716;9.184;2023-06-10T01:16:32;22.90;58.00
45803;DHT22;31504;51.716;9.184;2023-06-10T01:19:32;22.90;58.00
45803;DHT22;31504;51.716;9.184;2023-06-10T01:22:34;22.90;58.00
45803;DHT22;31504;51.716;9.184;2023-06-10T01:25:37;22.90;58.10
45803;DHT22;31504;51.716;9.184;2023-06-10T01:28:47;22.90;58.00
45803;DHT22;31504;51.716;9.184;2023-06-10T01:31:55;22.90;58.00
45803;DHT22;31504;51.716;9.184;2023-06-10T01:35:01;22.90;58.70
45803;DHT22;31504;51.716;9.184;2023-06-10T01:38:01;22.90;58.00
45803;DHT22;31504;51.716;9.184;2023-06-10T01:41:02;22.90;58.00
45803;DHT22;31504;51.716;9.184;2023-06-10T01:44:03;22.90;58.10
45803;DHT22;31504;51.716;9.184;2023-06-10T01:47:04;22.90;58.00
45803;DHT22;31504;51.716;9.184;2023-06-10T01:50:04;22.90;58.10
45803;DHT22;31504;51.716;9.184;2023-06-10T01:53:05;22.90;58.10
45803;DHT22;31504;51.716;9.184;2023-06-10T01:56:05;22.90;58.10
45803;DHT22;31504;51.716;9.184;2023-06-10T01:59:06;22.90;58.00
45803;DHT22;31504;51.716;9.184;2023-06-10T02:02:06;22.90;58.10
45803;DHT22;31504;51.716;9.184;2023-06-10T02:05:07;22.90;58.10
45803;DHT22;31504;51.716;9.184;2023-06-10T02:08:07;22.90;58.10
45803;DHT22;31504;51.716;9.184;2023-06-10T02:11:08;22.90;58.10
45803;DHT22;31504;51.716;9.184;2023-06-10T02:14:08;22.90;58.00
45803;DHT22;31504;51.716;9.184;2023-06-10T02:17:08;22.90;58.10
45803;DHT22;31504;51.716;9.184;2023-06-10T02:20:12;22.90;58.10
45803;DHT22;31504;51.716;9.184;2023-06-10T02:23:13;22.90;58.00
45803;DHT22;31504;51.716;9.184;2023-06-10T02:26:14;23.00;58.10
45803;DHT22;31504;51.716;9.184;2023-06-10T02:29:15;23.20;57.00
45803;DHT22;31504;51.716;9.184;2023-06-10T02:32:15;23.30;56.60
45803;DHT22;31504;51.716;9.184;2023-06-10T02:35:16;23.40;56.50
45803;DHT22;31504;51.716;9.184;2023-06-10T02:38:17;23.30;56.20
45803;DHT22;31504;51.716;9.184;2023-06-10T02:41:18;23.30;55.90
45803;DHT22;31504;51.716;9.184;2023-06-10T02:44:18;23.20;55.60
45803;DHT22;31504;51.716;9.184;2023-06-10T02:47:19;23.20;55.30
45803;DHT22;31504;51.716;9.184;2023-06-10T02:50:20;23.20;55.20
45803;DHT22;31504;51.716;9.184;2023-06-10T02:53:20;23.20;55.20
45803;DHT22;31504;51.716;9.184;2023-06-10T02:56:21;23.10;55.00
45803;DHT22;31504;51.716;9.184;2023-06-10T02:59:22;23.10;54.90
45803;DHT22;31504;51.716;9.184;2023-06-10T03:02:22;23.10;54.80
45803;DHT22;31504;51.716;9.184;2023-06-10T03:05:29;23.00;57.30
45803;DHT22;31504;51.716;9.184;2023-06-10T03:08:29;23.00;57.70
45803;DHT22;31504;51.716;9.184;2023-06-10T03:11:30;22.90;57.70
45803;DHT22;31504;51.716;9.184;2023-06-10T03:14:31;22.90;57.80
45803;DHT22;31504;51.716;9.184;2023-06-10T03:17:31;22.90;57.80
45803;DHT22;31504;51.716;9.184;2023-06-10T03:20:32;22.90;57.80
45803;DHT22;31504;51.716;9.184;2023-06-10T03:23:37;22.90;57.90
45803;DHT22;31504;51.716;9.184;2023-06-10T03:26:38;22.90;57.90
45803;DHT22;31504;51.716;9.184;2023-06-10T03:29:38;22.90;57.90
45803;DHT22;31504;51.716;9.184;2023-06-10T03:32:39;22.90;57.90
45803;DHT22;31504;51.716;9.184;2023-06-10T03:35:41;22.90;58.00
45803;DHT22;31504;51.716;9.184;2023-06-10T03:38:41;22.90;58.00
45803;DHT22;31504;51.716;9.184;2023-06-10T03:41:42;22.90;58.00
45803;DHT22;31504;51.716;9.184;2023-06-10T03:44:42;22.90;58.00
45803;DHT22;31504;51.716;9.184;2023-06-10T03:47:43;22.90;58.00
45803;DHT22;31504;51.716;9.184;2023-06-10T03:50:44;22.90;58.60
45803;DHT22;31504;51.716;9.184;2023-06-10T03:53:44;22.90;58.00
45803;DHT22;31504;51.716;9.184;2023-06-10T03:56:45;22.90;58.00
45803;DHT22;31504;51.716;9.184;2023-06-10T03:59:45;22.90;58.00
45803;DHT22;31504;51.716;9.184;2023-06-10T04:02:46;22.90;58.00
45803;DHT22;31504;51.716;9.184;2023-06-10T04:05:47;22.90;58.00
45803;DHT22;31504;51.716;9.184;2023-06-10T04:08:48;22.90;58.00
45803;DHT22;31504;51.716;9.184;2023-06-10T04:11:48;22.90;58.00
45803;DHT22;31504;51.716;9.184;2023-06-10T04:14:49;22.90;58.00
45803;DHT22;31504;51.716;9.184;2023-06-10T04:17:49;22.90;58.00
45803;DHT22;31504;51.716;9.184;2023-06-10T04:20:50;22.90;58.00
45803;DHT22;31504;51.716;9.184;2023-06-10T04:23:51;22.90;58.00
45803;DHT22;31504;51.716;9.184;2023-06-10T04:26:51;22.90;58.00
45803;DHT22;31504;51.716;9.184;2023-06-10T04:29:52;22.90;58.00
45803;DHT22;31504;51.716;9.184;2023-06-10T04:32:52;22.90;58.00
45803;DHT22;31504;51.716;9.184;2023-06-10T04:35:53;22.90;58.00
45803;DHT22;31504;51.716;9.184;2023-06-10T04:38:53;22.90;58.00
45803;DHT22;31504;51.716;9.184;2023-06-10T04:41:54;22.90;57.90
45803;DHT22;31504;51.716;9.184;2023-06-10T04:44:55;22.90;57.90
45803;DHT22;31504;51.716;9.184;2023-06-10T04:47:55;22.90;58.00
45803;DHT22;31504;51.716;9.184;2023-06-10T04:50:58;22.90;58.00
45803;DHT22;31504;51.716;9.184;2023-06-10T04:53:58;22.90;57.90
45803;DHT22;31504;51.716;9.184;2023-06-10T04:57:02;22.90;57.90
45803;DHT22;31504;51.716;9.184;2023-06-10T05:00:03;22.90;57.90
45803;DHT22;31504;51.716;9.184;2023-06-10T05:03:06;22.90;57.90
45803;DHT22;31504;51.716;9.184;2023-06-10T05:06:06;22.90;57.90
45803;DHT22;31504;51.716;9.184;2023-06-10T05:09:07;22.90;57.90
45803;DHT22;31504;51.716;9.184;2023-06-10T05:12:07;22.90;57.90
45803;DHT22;31504;51.716;9.184;2023-06-10T05:15:09;22.90;57.90
45803;DHT22;31504;51.716;9.184;2023-06-10T05:18:10;22.90;58.00
45803;DHT22;31504;51.716;9.184;2023-06-10T05:21:12;22.90;57.90
45803;DHT22;31504;51.716;9.184;2023-06-10T05:24:12;22.90;57.90
45803;DHT22;31504;51.716;9.184;2023-06-10T05:27:13;22.90;57.90
45803;DHT22;31504;51.716;9.184;2023-06-10T05:30:13;22.90;57.80
45803;DHT22;31504;51.716;9.184;2023-06-10T05:33:14;22.90;57.90
45803;DHT22;31504;51.716;9.184;2023-06-10T05:36:14;22.90;57.90
45803;DHT22;31504;51.716;9.184;2023-06-10T05:39:14;22.90;57.80
45803;DHT22;31504;51.716;9.184;2023-06-10T05:42:15;22.90;57.90
45803;DHT22;31504;51.716;9.184;2023-06-10T05:45:15;22.90;57.90
45803;DHT22;31504;51.716;9.184;2023-06-10T05:48:16;22.90;57.90
45803;DHT22;31504;51.716;9.184;2023-06-10T05:51:16;22.90;57.80
45803;DHT22;31504;51.716;9.184;2023-06-10T05:54:17;22.90;57.90
45803;DHT22;31504;51.716;9.184;2023-06-10T05:57:17;22.90;57.80
45803;DHT22;31504;51.716;9.184;2023-06-10T06:00:18;22.90;57.80
45803;DHT22;31504;51.716;9.184;2023-06-10T06:03:19;22.90;57.80
45803;DHT22;31504;51.716;9.184;2023-06-10T06:06:19;22.90;58.30
45803;DHT22;31504;51.716;9.184;2023-06-10T06:09:20;22.90;57.80
45803;DHT22;31504;51.716;9.184;2023-06-10T06:12:21;22.90;57.80
45803;DHT22;31504;51.716;9.184;2023-06-10T06:15:22;22.90;57.80
45803;DHT22;31504;51.716;9.184;2023-06-10T06:18:23;22.90;57.70
45803;DHT22;31504;51.716;9.184;2023-06-10T06:21:23;22.90;57.70
45803;DHT22;31504;51.716;9.184;2023-06-10T06:24:24;22.90;57.80
45803;DHT22;31504;51.716;9.184;2023-06-10T06:27:24;22.90;57.70
45803;DHT22;31504;51.716;9.184;2023-06-10T06:30:25;22.90;57.70
45803;DHT22;31504;51.716;9.184;2023-06-10T06:33:25;22.90;57.70
45803;DHT22;31504;51.716;9.184;2023-06-10T06:36:26;22.90;57.70
45803;DHT22;31504;51.716;9.184;2023-06-10T06:39:27;22.90;57.70
45803;DHT22;31504;51.716;9.184;2023-06-10T06:42:27;23.00;57.70
45803;DHT22;31504;51.716;9.184;2023-06-10T06:45:27;22.90;57.70
45803;DHT22;31504;51.716;9.184;2023-06-10T06:48:28;22.90;57.70
45803;DHT22;31504;51.716;9.184;2023-06-10T06:51:28;22.90;57.70
45803;DHT22;31504;51.716;9.184;2023-06-10T06:54:29;23.00;57.70
45803;DHT22;31504;51.716;9.184;2023-06-10T06:57:29;23.00;57.70
45803;DHT22;31504;51.716;9.184;2023-06-10T07:00:30;23.00;57.70
45803;DHT22;31504;51.716;9.184;2023-06-10T07:03:30;23.00;57.70
45803;DHT22;31504;51.716;9.184;2023-06-10T07:06:31;23.00;57.70
45803;DHT22;31504;51.716;9.184;2023-06-10T07:09:32;23.00;57.70
45803;DHT22;31504;51.716;9.184;2023-06-10T07:12:32;23.00;57.70
45803;DHT22;31504;51.716;9.184;2023-06-10T07:15:32;23.00;57.70
45803;DHT22;31504;51.716;9.184;2023-06-10T07:18:33;23.00;57.80
45803;DHT22;31504;51.716;9.184;2023-06-10T07:21:34;23.00;57.60
45803;DHT22;31504;51.716;9.184;2023-06-10T07:24:34;23.00;57.50
45803;DHT22;31504;51.716;9.184;2023-06-10T07:27:35;23.00;57.60
45803;DHT22;31504;51.716;9.184;2023-06-10T07:30:37;23.00;57.60
45803;DHT22;31504;51.716;9.184;2023-06-10T07:33:37;23.00;57.70
45803;DHT22;31504;51.716;9.184;2023-06-10T07:36:39;23.00;57.60
45803;DHT22;31504;51.716;9.184;2023-06-10T07:39:39;23.00;58.10
45803;DHT22;31504;51.716;9.184;2023-06-10T07:42:40;23.00;57.60
45803;DHT22;31504;51.716;9.184;2023-06-10T07:45:42;23.00;57.60
45803;DHT22;31504;51.716;9.184;2023-06-10T07:48:43;23.00;56.60
45803;DHT22;31504;51.716;9.184;2023-06-10T07:51:43;23.10;57.40
45803;DHT22;31504;51.716;9.184;2023-06-10T07:54:44;23.10;57.30
45803;DHT22;31504;51.716;9.184;2023-06-10T07:57:44;23.10;57.00
45803;DHT22;31504;51.716;9.184;2023-06-10T08:00:44;23.10;57.20
45803;DHT22;31504;51.716;9.184;2023-06-10T08:03:45;23.10;57.30
45803;DHT22;31504;51.716;9.184;2023-06-10T08:06:45;23.10;56.60
45803;DHT22;31504;51.716;9.184;2023-06-10T08:09:46;23.10;57.10
45803;DHT22;31504;51.716;9.184;2023-06-10T08:12:46;23.10;57.10
45803;DHT22;31504;51.716;9.184;2023-06-10T08:15:47;23.10;57.30
45803;DHT22;31504;51.716;9.184;2023-06-10T08:18:50;23.10;57.10
45803;DHT22;31504;51.716;9.184;2023-06-10T08:21:51;23.20;56.80
45803;DHT22;31504;51.716;9.184;2023-06-10T08:24:51;23.20;56.30
45803;DHT22;31504;51.716;9.184;2023-06-10T08:27:52;23.30;55.90
45803;DHT22;31504;51.716;9.184;2023-06-10T08:30:52;23.40;55.70
45803;DHT22;31504;51.716;9.184;2023-06-10T08:33:53;23.50;55.60
45803;DHT22;31504;51.716;9.184;2023-06-10T08:36:53;23.50;55.70
45803;DHT22;31504;51.716;9.184;2023-06-10T08:39:55;23.50;55.70
45803;DHT22;31504;51.716;9.184;2023-06-10T08:43:00;23.50;55.70
45803;DHT22;31504;51.716;9.184;2023-06-10T08:46:02;23.40;55.60
45803;DHT22;31504;51.716;9.184;2023-06-10T08:49:03;23.50;55.60
45803;DHT22;31504;51.716;9.184;2023-06-10T08:52:05;23.50;55.60
45803;DHT22;31504;51.716;9.184;2023-06-10T08:58:09;23.40;55.50
45803;DHT22;31504;51.716;9.184;2023-06-10T09:01:11;23.40;55.50
45803;DHT22;31504;51.716;9.184;2023-06-10T09:04:12;23.40;55.50
45803;DHT22;31504;51.716;9.184;2023-06-10T09:07:13;23.40;55.60
45803;DHT22;31504;51.716;9.184;2023-06-10T09:10:14;23.40;55.60
45803;DHT22;31504;51.716;9.184;2023-06-10T09:13:15;23.40;55.50
45803;DHT22;31504;51.716;9.184;2023-06-10T09:16:18;23.40;55.50
45803;DHT22;31504;51.716;9.184;2023-06-10T09:19:19;23.40;55.40
45803;DHT22;31504;51.716;9.184;2023-06-10T09:22:24;23.40;55.50
45803;DHT22;31504;51.716;9.184;2023-06-10T09:25:36;23.40;55.30
45803;DHT22;31504;51.716;9.184;2023-06-10T09:28:41;23.40;55.30
45803;DHT22;31504;51.716;9.184;2023-06-10T09:31:42;23.50;55.10
45803;DHT22;31504;51.716;9.184;2023-06-10T09:34:43;23.40;55.30
45803;DHT22;31504;51.716;9.184;2023-06-10T09:37:44;23.40;54.60
45803;DHT22;31504;51.716;9.184;2023-06-10T09:40:48;23.50;54.40
45803;DHT22;31504;51.716;9.184;2023-06-10T09:43:49;23.50;55.10
45803;DHT22;31504;51.716;9.184;2023-06-10T09:46:49;23.50;54.30
45803;DHT22;31504;51.716;9.184;2023-06-10T09:49:50;23.50;54.50
45803;DHT22;31504;51.716;9.184;2023-06-10T09:52:53;23.40;54.50
45803;DHT22;31504;51.716;9.184;2023-06-10T09:55:54;23.40;54.60
45803;DHT22;31504;51.716;9.184;2023-06-10T09:58:54;23.50;54.70
45803;DHT22;31504;51.716;9.184;2023-06-10T10:01:55;23.50;54.80
45803;DHT22;31504;51.716;9.184;2023-06-10T10:05:02;23.50;54.80
45803;DHT22;31504;51.716;9.184;2023-06-10T10:08:02;23.50;54.80
45803;DHT22;31504;51.716;9.184;2023-06-10T10:11:03;23.50;55.00
45803;DHT22;31504;51.716;9.184;2023-06-10T10:14:04;23.50;55.00
45803;DHT22;31504;51.716;9.184;2023-06-10T10:17:07;23.50;55.00
45803;DHT22;31504;51.716;9.184;2023-06-10T10:20:08;23.50;55.00
45803;DHT22;31504;51.716;9.184;2023-06-10T10:23:11;23.50;55.00
45803;DHT22;31504;51.716;9.184;2023-06-10T10:26:13;23.50;55.10
45803;DHT22;31504;51.716;9.184;2023-06-10T10:29:16;23.50;55.10
45803;DHT22;31504;51.716;9.184;2023-06-10T10:32:21;23.50;55.10
45803;DHT22;31504;51.716;9.184;2023-06-10T10:35:25;23.60;55.20
45803;DHT22;31504;51.716;9.184;2023-06-10T10:38:27;23.60;55.30
45803;DHT22;31504;51.716;9.184;2023-06-10T10:41:28;23.50;55.50
45803;DHT22;31504;51.716;9.184;2023-06-10T10:44:28;23.50;55.40
45803;DHT22;31504;51.716;9.184;2023-06-10T10:47:29;23.50;55.40
45803;DHT22;31504;51.716;9.184;2023-06-10T10:50:31;23.60;55.50
45803;DHT22;31504;51.716;9.184;2023-06-10T10:53:31;23.50;55.60
45803;DHT22;31504;51.716;9.184;2023-06-10T10:56:31;23.60;55.70
45803;DHT22;31504;51.716;9.184;2023-06-10T11:02:45;23.60;55.70
45803;DHT22;31504;51.716;9.184;2023-06-10T11:05:48;23.50;55.80
45803;DHT22;31504;51.716;9.184;2023-06-10T11:08:49;23.60;55.80
45803;DHT22;31504;51.716;9.184;2023-06-10T11:11:49;23.70;55.70
45803;DHT22;31504;51.716;9.184;2023-06-10T11:14:53;23.60;56.10
45803;DHT22;31504;51.716;9.184;2023-06-10T11:21:14;23.70;55.80
45803;DHT22;31504;51.716;9.184;2023-06-10T11:24:18;23.70;56.10
45803;DHT22;31504;51.716;9.184;2023-06-10T11:27:20;23.60;56.10
45803;DHT22;31504;51.716;9.184;2023-06-10T11:30:20;23.60;56.10
45803;DHT22;31504;51.716;9.184;2023-06-10T11:33:26;23.70;56.50
45803;DHT22;31504;51.716;9.184;2023-06-10T11:36:26;23.80;56.30
45803;DHT22;31504;51.716;9.184;2023-06-10T11:39:27;23.90;56.10
45803;DHT22;31504;51.716;9.184;2023-06-10T11:42:28;23.90;56.00
45803;DHT22;31504;51.716;9.184;2023-06-10T11:45:28;23.90;56.10
45803;DHT22;31504;51.716;9.184;2023-06-10T11:48:29;23.80;56.20
45803;DHT22;31504;51.716;9.184;2023-06-10T11:51:32;23.80;56.50
45803;DHT22;31504;51.716;9.184;2023-06-10T11:54:33;23.80;56.60
45803;DHT22;31504;51.716;9.184;2023-06-10T11:57:34;23.70;56.60
45803;DHT22;31504;51.716;9.184;2023-06-10T12:00:35;23.80;56.60
45803;DHT22;31504;51.716;9.184;2023-06-10T12:03:43;23.80;56.70
45803;DHT22;31504;51.716;9.184;2023-06-10T12:09:44;23.80;56.60
45803;DHT22;31504;51.716;9.184;2023-06-10T12:12:45;23.70;56.60
45803;DHT22;31504;51.716;9.184;2023-06-10T12:15:46;23.80;56.70
45803;DHT22;31504;51.716;9.184;2023-06-10T12:18:46;23.70;56.90
45803;DHT22;31504;51.716;9.184;2023-06-10T12:21:47;23.80;56.80
45803;DHT22;31504;51.716;9.184;2023-06-10T12:25:02;23.80;56.70
45803;DHT22;31504;51.716;9.184;2023-06-10T12:28:03;23.80;56.60
45803;DHT22;31504;51.716;9.184;2023-06-10T12:31:07;23.90;56.90
45803;DHT22;31504;51.716;9.184;2023-06-10T12:34:08;23.90;57.30
45803;DHT22;31504;51.716;9.184;2023-06-10T12:37:12;24.00;56.30
45803;DHT22;31504;51.716;9.184;2023-06-10T12:40:16;24.00;56.50
45803;DHT22;31504;51.716;9.184;2023-06-10T12:43:20;23.90;56.40
45803;DHT22;31504;51.716;9.184;2023-06-10T12:49:24;23.80;56.60
45803;DHT22;31504;51.716;9.184;2023-06-10T12:52:25;23.80;56.80
45803;DHT22;31504;51.716;9.184;2023-06-10T12:55:26;23.70;57.00
45803;DHT22;31504;51.716;9.184;2023-06-10T12:58:26;23.90;57.10
45803;DHT22;31504;51.716;9.184;2023-06-10T13:01:27;24.00;56.90
45803;DHT22;31504;51.716;9.184;2023-06-10T13:04:27;24.00;56.70
45803;DHT22;31504;51.716;9.184;2023-06-10T13:07:28;24.00;57.70
45803;DHT22;31504;51.716;9.184;2023-06-10T13:10:28;24.10;57.20
45803;DHT22;31504;51.716;9.184;2023-06-10T13:13:29;24.10;57.30
45803;DHT22;31504;51.716;9.184;2023-06-10T13:16:30;24.10;57.30
45803;DHT22;31504;51.716;9.184;2023-06-10T13:19:31;24.10;57.20
45803;DHT22;31504;51.716;9.184;2023-06-10T13:22:32;24.10;57.10
45803;DHT22;31504;51.716;9.184;2023-06-10T13:25:35;24.20;56.70
45803;DHT22;31504;51.716;9.184;2023-06-10T13:28:35;24.20;56.90
45803;DHT22;31504;51.716;9.184;2023-06-10T13:31:35;24.20;56.70
45803;DHT22;31504;51.716;9.184;2023-06-10T13:34:36;24.20;56.60
45803;DHT22;31504;51.716;9.184;2023-06-10T13:37:36;24.20;56.40
45803;DHT22;31504;51.716;9.184;2023-06-10T13:40:37;24.20;55.90
45803;DHT22;31504;51.716;9.184;2023-06-10T13:43:37;24.10;56.70
45803;DHT22;31504;51.716;9.184;2023-06-10T13:46:38;24.20;56.70
45803;DHT22;31504;51.716;9.184;2023-06-10T13:49:38;24.20;56.40
45803;DHT22;31504;51.716;9.184;2023-06-10T13:52:39;24.20;56.40
45803;DHT22;31504;51.716;9.184;2023-06-10T13:55:39;24.20;56.40
45803;DHT22;31504;51.716;9.184;2023-06-10T13:58:39;24.20;56.40
45803;DHT22;31504;51.716;9.184;2023-06-10T14:01:41;24.10;56.80
45803;DHT22;31504;51.716;9.184;2023-06-10T14:04:42;23.90;56.80
45803;DHT22;31504;51.716;9.184;2023-06-10T14:07:43;23.90;57.40
45803;DHT22;31504;51.716;9.184;2023-06-10T14:10:43;24.10;57.00
45803;DHT22;31504;51.716;9.184;2023-06-10T14:13:43;24.20;56.70
45803;DHT22;31504;51.716;9.184;2023-06-10T14:16:44;24.20;56.60
45803;DHT22;31504;51.716;9.184;2023-06-10T14:19:44;24.20;56.50
45803;DHT22;31504;51.716;9.184;2023-06-10T14:22:45;24.30;56.50
45803;DHT22;31504;51.716;9.184;2023-06-10T14:25:45;24.20;56.50
45803;DHT22;31504;51.716;9.184;2023-06-10T14:28:46;24.20;56.50
45803;DHT22;31504;51.716;9.184;2023-06-10T14:31:46;24.20;56.50
45803;DHT22;31504;51.716;9.184;2023-06-10T14:34:47;24.20;56.70
45803;DHT22;31504;51.716;9.184;2023-06-10T14:37:47;24.10;56.80
45803;DHT22;31504;51.716;9.184;2023-06-10T14:40:47;24.20;56.90
45803;DHT22;31504;51.716;9.184;2023-06-10T14:43:48;24.20;56.90
45803;DHT22;31504;51.716;9.184;2023-06-10T14:46:48;24.30;56.90
45803;DHT22;31504;51.716;9.184;2023-06-10T14:49:49;24.30;56.90
45803;DHT22;31504;51.716;9.184;2023-06-10T14:52:50;24.30;57.00
45803;DHT22;31504;51.716;9.184;2023-06-10T14:55:50;24.20;57.10
45803;DHT22;31504;51.716;9.184;2023-06-10T14:58:51;24.20;57.40
45803;DHT22;31504;51.716;9.184;2023-06-10T15:01:51;24.10;58.10
45803;DHT22;31504;51.716;9.184;2023-06-10T15:04:52;24.10;57.60
45803;DHT22;31504;51.716;9.184;2023-06-10T15:07:52;24.10;56.90
45803;DHT22;31504;51.716;9.184;2023-06-10T15:10:53;24.20;57.50
45803;DHT22;31504;51.716;9.184;2023-06-10T15:13:53;24.10;57.40
45803;DHT22;31504;51.716;9.184;2023-06-10T15:16:54;24.20;57.90
45803;DHT22;31504;51.716;9.184;2023-06-10T15:19:56;24.20;57.20
45803;DHT22;31504;51.716;9.184;2023-06-10T15:22:56;24.30;57.10
45803;DHT22;31504;51.716;9.184;2023-06-10T15:25:56;24.30;56.80
45803;DHT22;31504;51.716;9.184;2023-06-10T15:28:57;24.20;56.80
45803;DHT22;31504;51.716;9.184;2023-06-10T15:31:58;24.30;57.00
45803;DHT22;31504;51.716;9.184;2023-06-10T15:34:58;24.20;57.20
45803;DHT22;31504;51.716;9.184;2023-06-10T15:37:59;24.20;59.00
45803;DHT22;31504;51.716;9.184;2023-06-10T15:40:59;24.20;59.80
45803;DHT22;31504;51.716;9.184;2023-06-10T15:44:00;24.20;61.00
45803;DHT22;31504;51.716;9.184;2023-06-10T15:47:00;24.10;61.50
45803;DHT22;31504;51.716;9.184;2023-06-10T15:50:01;24.10;62.60
45803;DHT22;31504;51.716;9.184;2023-06-10T15:53:02;24.20;63.30
45803;DHT22;31504;51.716;9.184;2023-06-10T15:56:03;24.20;64.30
45803;DHT22;31504;51.716;9.184;2023-06-10T15:59:03;24.10;65.60
45803;DHT22;31504;51.716;9.184;2023-06-10T16:02:04;24.10;66.90
45803;DHT22;31504;51.716;9.184;2023-06-10T16:05:04;24.20;68.00
45803;DHT22;31504;51.716;9.184;2023-06-10T16:08:06;24.20;68.10
45803;DHT22;31504;51.716;9.184;2023-06-10T16:11:07;24.20;67.90
45803;DHT22;31504;51.716;9.184;2023-06-10T16:14:08;24.20;68.40
45803;DHT22;31504;51.716;9.184;2023-06-10T16:17:09;24.20;68.90
45803;DHT22;31504;51.716;9.184;2023-06-10T16:20:09;24.20;68.90
45803;DHT22;31504;51.716;9.184;2023-06-10T16:23:10;24.20;68.50
45803;DHT22;31504;51.716;9.184;2023-06-10T16:26:10;24.20;67.90
45803;DHT22;31504;51.716;9.184;2023-06-10T16:29:11;24.20;67.90
45803;DHT22;31504;51.716;9.184;2023-06-10T16:32:12;24.20;67.60
45803;DHT22;31504;51.716;9.184;2023-06-10T16:35:12;24.20;67.40
45803;DHT22;31504;51.716;9.184;2023-06-10T16:38:13;24.20;67.00
45803;DHT22;31504;51.716;9.184;2023-06-10T16:41:13;24.10;66.60
45803;DHT22;31504;51.716;9.184;2023-06-10T16:44:14;24.10;66.10
45803;DHT22;31504;51.716;9.184;2023-06-10T16:47:16;24.10;65.80
45803;DHT22;31504;51.716;9.184;2023-06-10T16:50:17;24.10;65.80
45803;DHT22;31504;51.716;9.184;2023-06-10T16:53:17;24.10;65.60
45803;DHT22;31504;51.716;9.184;2023-06-10T16:56:18;24.10;66.00
45803;DHT22;31504;51.716;9.184;2023-06-10T16:59:18;24.10;66.50
45803;DHT22;31504;51.716;9.184;2023-06-10T17:02:19;24.10;67.20
45803;DHT22;31504;51.716;9.184;2023-06-10T17:05:20;24.10;68.10
45803;DHT22;31504;51.716;9.184;2023-06-10T17:08:20;24.10;68.70
45803;DHT22;31504;51.716;9.184;2023-06-10T17:11:20;24.10;69.00
45803;DHT22;31504;51.716;9.184;2023-06-10T17:14:21;24.10;69.20
45803;DHT22;31504;51.716;9.184;2023-06-10T17:17:25;24.10;68.90
45803;DHT22;31504;51.716;9.184;2023-06-10T17:20:25;24.10;68.80
45803;DHT22;31504;51.716;9.184;2023-06-10T17:23:27;24.10;68.90
45803;DHT22;31504;51.716;9.184;2023-06-10T17:26:27;24.10;68.50
45803;DHT22;31504;51.716;9.184;2023-06-10T17:29:28;24.10;68.40
45803;DHT22;31504;51.716;9.184;2023-06-10T17:32:28;24.10;68.60
45803;DHT22;31504;51.716;9.184;2023-06-10T17:35:28;24.20;68.50
45803;DHT22;31504;51.716;9.184;2023-06-10T17:38:29;24.10;68.60
45803;DHT22;31504;51.716;9.184;2023-06-10T17:41:30;24.10;68.60
45803;DHT22;31504;51.716;9.184;2023-06-10T17:44:30;24.10;68.70
45803;DHT22;31504;51.716;9.184;2023-06-10T17:47:31;24.10;68.70
45803;DHT22;31504;51.716;9.184;2023-06-10T17:50:32;24.10;68.80
45803;DHT22;31504;51.716;9.184;2023-06-10T17:53:32;24.10;66.90
45803;DHT22;31504;51.716;9.184;2023-06-10T17:56:33;24.00;64.70
45803;DHT22;31504;51.716;9.184;2023-06-10T17:59:33;24.00;64.40
45803;DHT22;31504;51.716;9.184;2023-06-10T18:02:34;23.90;63.10
45803;DHT22;31504;51.716;9.184;2023-06-10T18:05:34;24.00;63.00
45803;DHT22;31504;51.716;9.184;2023-06-10T18:08:35;23.90;62.50
45803;DHT22;31504;51.716;9.184;2023-06-10T18:11:35;23.90;62.30
45803;DHT22;31504;51.716;9.184;2023-06-10T18:14:36;23.90;61.60
45803;DHT22;31504;51.716;9.184;2023-06-10T18:17:36;23.90;61.40
45803;DHT22;31504;51.716;9.184;2023-06-10T18:20:37;23.90;61.50
45803;DHT22;31504;51.716;9.184;2023-06-10T18:23:37;23.90;60.80
45803;DHT22;31504;51.716;9.184;2023-06-10T18:26:37;23.90;60.70
45803;DHT22;31504;51.716;9.184;2023-06-10T18:29:38;23.90;61.50
45803;DHT22;31504;51.716;9.184;2023-06-10T18:32:38;23.90;60.50
45803;DHT22;31504;51.716;9.184;2023-06-10T18:35:39;23.80;60.60
45803;DHT22;31504;51.716;9.184;2023-06-10T18:38:40;23.80;60.30
45803;DHT22;31504;51.716;9.184;2023-06-10T18:41:40;23.80;60.20
45803;DHT22;31504;51.716;9.184;2023-06-10T18:44:40;23.80;60.20
45803;DHT22;31504;51.716;9.184;2023-06-10T18:47:41;23.90;60.20
45803;DHT22;31504;51.716;9.184;2023-06-10T18:50:41;23.80;60.30
45803;DHT22;31504;51.716;9.184;2023-06-10T18:53:42;23.90;60.50
45803;DHT22;31504;51.716;9.184;2023-06-10T18:56:42;23.90;60.50
45803;DHT22;31504;51.716;9.184;2023-06-10T18:59:43;23.90;60.60
45803;DHT22;31504;51.716;9.184;2023-06-10T19:02:43;23.90;60.70
45803;DHT22;31504;51.716;9.184;2023-06-10T19:05:44;23.90;60.70
45803;DHT22;31504;51.716;9.184;2023-06-10T19:08:45;23.90;60.70
45803;DHT22;31504;51.716;9.184;2023-06-10T19:11:46;23.90;60.80
45803;DHT22;31504;51.716;9.184;2023-06-10T19:14:46;23.80;60.60
45803;DHT22;31504;51.716;9.184;2023-06-10T19:17:47;23.90;60.60
45803;DHT22;31504;51.716;9.184;2023-06-10T19:20:47;23.90;60.50